EIDWEGMC

Guest
Details From EIDW - Dublin
To EGMC - Southend
Flight Number -
Tags Generated
Created
Modified
Stats Distance 278 nm / 514 km
Max Altitude 0 ft / 0 m
Waypoints 3
Social Downloads 4
Likes 0
Share VATSIM

Download

Looking for another format? Having issues loading an existing format? Contact us
Advertisement - Login to hide

Notes

Generated

Route

EIDW GILDA EGMC

ID Type Via Altitude Latitude Longitude Leg Dist Tot Dist Heading (true) Name
O EIDW APT - 0 ft / 0 m 53.43655˚ -6.26227˚ - 0 nm - -
GILDA FIX - 0 ft / 0 m 51.60167˚ 0.58361˚ 273 nm 273 nm 111° / 116° -
O EGMC APT - 0 ft / 0 m 51.56725˚ 0.68627˚ 4 nm 277 nm 118° / 118° -

Altitude Profile

Advertisement - Login to hide

Weather


0- 5 10 15 20 25 30 35+ Temperature / ° C

Clouds and Precipitation
Forecast for 2018-05-27 12:00 UTC. Updated 2 hours ago

Ground ~20,000 ft ~40,000 ft Winds

EIDW

Details ICAO EIDW (DUB)
Name Dublin
Region Ireland
Timezone Europe/Dublin (UTC+1.0)
Stats Elevation 242 ft / 74 m (AMSL)
Location 53.428264° -6.259550°
Runways 3
Magnetic Variation 2.949° W

METAR

EIDW 271030Z 06010KT 9999 FEW018 SCT050 BKN200 15/11 Q1017 NOSIG

Decode

TAF

TAF EIDW 270500Z 2706/2806 05014KT 9999 FEW020 BKN040 TEMPO 2706/2710 5000 SHRA BKN010 BKN030CB PROB40 TEMPO 2706/2708 3000 TSRA BKN007 PROB30 TEMPO 2706/2707 +SHRA BECMG 2709/2712 08010KT TEMPO 2712/2721 5000 SHRA BKN014 SCT018CB BECMG 2718/2721 VRB03KT TEMPO 2721/2804 3000 BR BKN004 PROB40 TEMPO 2800/2803 0500 FG BKN001

Decode

Departure Runways

ID Width Length Bearing (true) Bearing (mag) Surface Threshold Offset Overrun Length
10 148 ft / 45 m 8,625 ft / 2,629 m 95.25° 98.20° Concrete 0 ft / 0 m 0 ft / 0 m
11 200 ft / 61 m 4,380 ft / 1,335 m 105.01° 107.96° Asphalt 279 ft / 85 m 0 ft / 0 m
16 200 ft / 61 m 6,791 ft / 2,070 m 156.64° 159.59° Asphalt 0 ft / 0 m 0 ft / 0 m
28 148 ft / 45 m 8,625 ft / 2,629 m 275.28° 278.23° Concrete 0 ft / 0 m 0 ft / 0 m
29 200 ft / 61 m 4,380 ft / 1,335 m 285.02° 287.97° Asphalt 0 ft / 0 m 0 ft / 0 m
34 200 ft / 61 m 6,791 ft / 2,070 m 336.65° 339.60° Asphalt 0 ft / 0 m 0 ft / 0 m

EGMC

Details ICAO EGMC (SEN)
Name Southend
Region United Kingdom
Timezone Europe/London (UTC+1.0)
Stats Elevation 49 ft / 15 m (AMSL)
Location 51.571443° 0.695583°
Runways 1
Magnetic Variation 0.106° W

METAR

EGMC 271020Z 09009KT 9000 NSC 20/15 Q1016

Decode

TAF

Not found

Destination Runways

ID Width Length Bearing (true) Bearing (mag) Surface Threshold Offset Overrun Length
06 121 ft / 37 m 5,230 ft / 1,594 m 54.10° 54.21° Asphalt 558 ft / 170 m 0 ft / 0 m
24 121 ft / 37 m 5,230 ft / 1,594 m 234.11° 234.22° Asphalt 466 ft / 142 m 0 ft / 0 m

Approach Navaids

Runway Type Ident Frequency Range Bearing (true) Bearing (mag) Slope Elevation
24 Localiser IND 111.35 MHz 18 nm / 33 km 234.08° 234.19° - 49 ft / 15 m (AMSL)
24 Glidescope IND 111.35 MHz 10 nm / 19 km 234.10° 234.21° 3.50° 49 ft / 15 m (AMSL)
24 DME IND 111.35 MHz 18 nm / 33 km - - - 49 ft / 15 m (AMSL)

Popular Alternatives